Main page
METAR-TAF:

METAR-TAF

Airports :

Isle of Man Airport

Isle of Man,

latitude: 54-05N, longitude: 004-38W, elevation: 17 m

Current weather observation

The report was made 46 minutes ago, at 22:50 UTC
Wind 9 kt from the West
Temperature 12°C
Humidity 76%
Pressure 1014 hPa
Visibility 10 km or more
Few clouds at a height of 4000 ft

METAR: EGNS 252250Z 27009KT 9999 FEW040 12/08 Q1014

Time: 00:36 (23:36 UTC)

Forecast

The report was made 6 hours and 36 minutes ago, at 17:00 UTC
Forecast valid from 25 at 18 UTC to 25 at 22 UTC
Wind 15 kt from the West
Visibility 10 km or more
Few clouds at a height of 2500 ft
Scattered clouds at a height of 4500 ft

TAF: EGNS 251700Z 2518/2522 27015KT 9999 FEW025 SCT045

Weather observations and forecasts of more than 4000 airports (METAR and TAF reports).

The available stations are represented by yellow and red dots on the map.

Hover mouse over dot to see the name of the station.

Then click to see weather observations and forecasts.

To change the map : click on the green buttons with a black cross to zoom in, on the green button with a dash to zoom out, or on the green arrows for adjacent maps.


METAR-TAF: